createdAt,value
2023-01-12T00:03:11.796Z,5.64
2023-01-12T00:08:13.637Z,5.60
2023-01-12T00:13:15.261Z,5.62
2023-01-12T00:18:16.863Z,5.67
2023-01-12T00:23:19.671Z,5.72
2023-01-12T00:28:21.299Z,5.77
2023-01-12T00:33:22.924Z,5.78
2023-01-12T00:38:24.821Z,5.76
2023-01-12T00:43:45.181Z,5.77
2023-01-12T00:48:47.006Z,5.80
2023-01-12T00:53:49.751Z,5.80
2023-01-12T00:58:51.363Z,5.71
2023-01-12T01:03:53.000Z,5.61
2023-01-12T01:08:55.293Z,5.55
2023-01-12T01:13:57.087Z,5.42
2023-01-12T01:18:59.452Z,5.47
2023-01-12T01:24:01.150Z,5.51
2023-01-12T01:29:02.755Z,5.49
2023-01-12T01:34:04.366Z,5.60
2023-01-12T01:39:06.007Z,5.67
2023-01-12T01:44:29.596Z,5.69
2023-01-12T01:49:55.841Z,5.73
2023-01-12T01:55:10.608Z,5.75
2023-01-12T02:00:13.224Z,5.86
2023-01-12T02:05:19.022Z,5.88
2023-01-12T02:10:21.331Z,5.90
2023-01-12T02:15:45.053Z,5.69
2023-01-12T02:21:05.239Z,5.65
2023-01-12T02:26:38.205Z,5.52
2023-01-12T02:31:54.622Z,5.59
2023-01-12T02:36:58.911Z,5.66
2023-01-12T02:42:25.391Z,5.69
2023-01-12T02:47:58.689Z,5.69
2023-01-12T02:53:07.098Z,5.67
2023-01-12T02:58:12.391Z,5.73
2023-01-12T03:03:17.227Z,5.77
2023-01-12T03:08:23.730Z,5.76
2023-01-12T03:13:28.986Z,5.73
2023-01-12T03:18:34.638Z,5.72
2023-01-12T03:24:03.271Z,5.68
2023-01-12T03:29:30.569Z,5.67
2023-01-12T03:34:33.376Z,5.50
2023-01-12T03:39:53.909Z,5.45
2023-01-12T03:45:15.942Z,5.42
2023-01-12T03:50:23.837Z,5.46
2023-01-12T03:55:29.967Z,5.48
2023-01-12T04:00:32.016Z,5.45
2023-01-12T04:05:33.848Z,5.38
2023-01-12T04:10:36.000Z,5.44
2023-01-12T04:15:42.359Z,5.43
2023-01-12T04:20:44.095Z,5.49
2023-01-12T04:25:45.733Z,5.73
2023-01-12T04:30:47.352Z,6.05
2023-01-12T04:35:48.980Z,6.18
2023-01-12T04:40:54.763Z,6.42
2023-01-12T04:45:56.443Z,6.33
2023-01-12T04:51:00.683Z,6.24
2023-01-12T04:56:07.158Z,6.26
2023-01-12T05:01:14.370Z,6.41
2023-01-12T05:06:16.038Z,6.49
2023-01-12T05:11:17.760Z,6.81
2023-01-12T05:16:19.579Z,7.05
2023-01-12T05:21:22.425Z,7.28
2023-01-12T05:26:24.078Z,7.33
2023-01-12T05:31:25.704Z,7.41
2023-01-12T05:36:27.313Z,7.41
2023-01-12T05:41:28.995Z,7.49
2023-01-12T05:46:33.397Z,7.58
2023-01-12T05:51:35.004Z,7.57
2023-01-12T05:56:36.693Z,7.67
2023-01-12T06:01:40.391Z,7.62
2023-01-12T06:06:42.333Z,7.54
2023-01-12T06:12:02.216Z,7.52
2023-01-12T06:17:03.883Z,7.49
2023-01-12T06:22:07.684Z,7.44
2023-01-12T06:27:09.351Z,7.37
2023-01-12T06:32:11.179Z,7.41
2023-01-12T06:37:13.086Z,7.35
2023-01-12T06:42:29.579Z,7.32
2023-01-12T06:47:31.503Z,7.31
2023-01-12T06:52:33.154Z,7.24
2023-01-12T06:57:34.812Z,7.16
2023-01-12T07:02:36.394Z,7.17
2023-01-12T07:07:40.081Z,7.14
2023-01-12T07:12:42.041Z,7.05
2023-01-12T07:17:43.641Z,6.97
2023-01-12T07:22:45.270Z,6.87
2023-01-12T07:27:58.167Z,6.68
2023-01-12T07:33:12.337Z,6.55
2023-01-12T07:38:14.157Z,6.45
2023-01-12T07:43:17.288Z,6.41
2023-01-12T07:48:21.328Z,6.32
2023-01-12T07:53:23.857Z,6.30
2023-01-12T07:58:27.593Z,6.39
2023-01-12T08:03:29.273Z,6.49
2023-01-12T08:08:30.912Z,6.63
2023-01-12T08:13:33.545Z,6.79
2023-01-12T08:18:55.382Z,6.88
2023-01-12T08:24:00.508Z,6.97
2023-01-12T08:29:12.169Z,7.05
2023-01-12T08:34:14.782Z,7.15
2023-01-12T08:39:16.444Z,7.28
2023-01-12T08:44:19.025Z,7.44
2023-01-12T08:49:24.536Z,7.58
2023-01-12T08:54:26.383Z,7.75
2023-01-12T08:59:28.015Z,7.84
2023-01-12T09:04:29.677Z,8.11
2023-01-12T09:09:31.331Z,8.25
2023-01-12T09:14:38.477Z,8.40
2023-01-12T09:19:40.146Z,8.70
2023-01-12T09:24:41.896Z,8.91
2023-01-12T09:29:43.578Z,8.94
2023-01-12T09:34:48.389Z,9.11
2023-01-12T09:39:50.108Z,9.16
2023-01-12T09:45:11.410Z,9.22
2023-01-12T09:50:28.481Z,9.33
2023-01-12T09:55:41.992Z,9.35
2023-01-12T10:00:43.637Z,9.43
2023-01-12T10:06:00.740Z,9.63
2023-01-12T10:11:32.583Z,9.77
2023-01-12T10:17:05.775Z,9.94
2023-01-12T10:22:39.685Z,9.85
2023-01-12T10:27:45.061Z,9.86
2023-01-12T10:32:47.014Z,9.97
2023-01-12T10:37:51.884Z,10.10
2023-01-12T10:43:20.728Z,10.20
2023-01-12T10:48:23.142Z,10.31
2023-01-12T10:53:38.116Z,10.41
2023-01-12T10:58:41.878Z,10.54
2023-01-12T11:03:43.608Z,10.65
2023-01-12T11:08:45.230Z,10.69
2023-01-12T11:13:47.361Z,10.87
2023-01-12T11:18:58.211Z,10.96
2023-01-12T11:24:12.537Z,11.02
2023-01-12T11:29:34.027Z,11.09
2023-01-12T11:34:44.717Z,11.14
2023-01-12T11:39:52.613Z,11.23
2023-01-12T11:45:07.019Z,11.17
2023-01-12T11:50:22.009Z,11.28
2023-01-12T11:55:48.855Z,11.27
2023-01-12T12:01:15.607Z,11.35
2023-01-12T12:06:27.048Z,11.43
2023-01-12T12:11:47.018Z,11.44
2023-01-12T12:17:09.575Z,11.47
2023-01-12T12:22:26.403Z,11.51
2023-01-12T12:27:36.065Z,11.71
2023-01-12T12:33:02.350Z,11.77
2023-01-12T12:38:29.848Z,11.90
2023-01-12T12:43:54.551Z,11.89
2023-01-12T12:49:03.161Z,12.07
2023-01-12T12:54:10.689Z,12.07
2023-01-12T12:59:31.332Z,11.95
2023-01-12T13:04:42.700Z,11.90
2023-01-12T13:09:49.631Z,11.83
2023-01-12T13:15:36.391Z,11.67
2023-01-12T13:20:51.174Z,11.56
2023-01-12T13:25:57.358Z,11.45
2023-01-12T13:31:00.436Z,11.49
2023-01-12T13:36:06.335Z,11.41
2023-01-12T13:41:39.871Z,11.56
2023-01-12T13:46:51.612Z,11.64
2023-01-12T13:52:01.065Z,11.72
2023-01-12T13:57:06.772Z,11.77
2023-01-12T14:02:18.831Z,11.71
2023-01-12T14:07:36.173Z,11.65
2023-01-12T14:13:01.206Z,11.64
2023-01-12T14:18:19.912Z,11.41
2023-01-12T14:23:36.396Z,11.25
2023-01-12T14:28:44.500Z,11.06
2023-01-12T14:33:53.075Z,10.98
2023-01-12T14:38:56.396Z,10.84
2023-01-12T14:44:16.803Z,10.74
2023-01-12T14:49:30.391Z,10.60
2023-01-12T14:54:34.491Z,10.51
2023-01-12T14:59:45.602Z,10.36
2023-01-12T15:05:07.131Z,10.28
2023-01-12T15:10:09.103Z,10.11
2023-01-12T15:15:24.418Z,9.97
2023-01-12T15:20:47.712Z,9.64
2023-01-12T15:25:49.613Z,9.42
2023-01-12T15:30:52.913Z,9.45
2023-01-12T15:35:54.831Z,9.41
2023-01-12T15:40:56.734Z,9.33
2023-01-12T15:45:58.434Z,9.24
2023-01-12T15:51:00.291Z,9.15
2023-01-12T15:56:01.940Z,9.10
2023-01-12T16:01:06.779Z,8.91
2023-01-12T16:06:08.611Z,8.71
2023-01-12T16:11:20.198Z,8.58
2023-01-12T16:16:21.839Z,8.57
2023-01-12T16:21:23.571Z,8.52
2023-01-12T16:26:26.293Z,8.55
2023-01-12T16:31:28.235Z,8.56
2023-01-12T16:36:30.139Z,8.57
2023-01-12T16:41:31.724Z,8.48
2023-01-12T16:46:33.329Z,8.52
2023-01-12T16:51:35.087Z,8.51
2023-01-12T16:56:36.728Z,8.48
2023-01-12T17:01:38.560Z,8.42
2023-01-12T17:06:40.873Z,8.39
2023-01-12T17:11:43.896Z,8.35
2023-01-12T17:16:45.707Z,8.30
2023-01-12T17:21:49.856Z,8.26
2023-01-12T17:26:53.461Z,8.24
2023-01-12T17:32:04.059Z,8.17
2023-01-12T17:37:09.718Z,8.15
2023-01-12T17:42:35.540Z,8.05
2023-01-12T17:47:37.393Z,8.03
2023-01-12T17:52:39.094Z,8.06
2023-01-12T17:57:40.840Z,8.04
2023-01-12T18:02:43.037Z,8.00
2023-01-12T18:07:44.934Z,7.86
2023-01-12T18:12:46.678Z,7.94
2023-01-12T18:17:49.656Z,7.93
2023-01-12T18:22:55.228Z,7.94
2023-01-12T18:27:56.893Z,7.87
2023-01-12T18:32:58.536Z,7.85
2023-01-12T18:38:00.136Z,7.84
2023-01-12T18:43:01.948Z,7.83
2023-01-12T18:48:23.651Z,7.80
2023-01-12T18:53:25.996Z,7.70
2023-01-12T18:58:30.959Z,7.64
2023-01-12T19:03:34.362Z,7.61
2023-01-12T19:08:54.641Z,7.59
2023-01-12T19:14:14.857Z,7.52
2023-01-12T19:19:16.576Z,7.46
2023-01-12T19:24:37.261Z,7.37
2023-01-12T19:29:40.869Z,7.29
2023-01-12T19:34:43.394Z,7.14
2023-01-12T19:40:04.110Z,7.01
2023-01-12T19:45:08.600Z,6.90
2023-01-12T19:50:12.414Z,6.76
2023-01-12T19:55:15.011Z,6.77
2023-01-12T20:00:17.600Z,6.83
2023-01-12T20:05:22.726Z,6.84
2023-01-12T20:10:24.670Z,6.90
2023-01-12T20:15:26.779Z,6.95
2023-01-12T20:20:30.536Z,7.00
2023-01-12T20:25:32.643Z,6.99
2023-01-12T20:30:38.869Z,6.94
2023-01-12T20:35:46.654Z,6.88
2023-01-12T20:40:48.555Z,6.88
2023-01-12T20:45:52.443Z,6.85
2023-01-12T20:50:54.208Z,6.79
2023-01-12T20:55:55.832Z,6.82
2023-01-12T21:00:57.869Z,6.84
2023-01-12T21:06:01.192Z,6.87
2023-01-12T21:11:03.086Z,6.87
2023-01-12T21:16:07.037Z,6.86
2023-01-12T21:21:09.763Z,6.84
2023-01-12T21:26:11.503Z,6.83
2023-01-12T21:31:13.537Z,6.79
2023-01-12T21:36:15.220Z,6.73
2023-01-12T21:41:17.646Z,6.68
2023-01-12T21:46:20.486Z,6.52
2023-01-12T21:51:22.162Z,6.48
2023-01-12T21:56:23.808Z,6.40
2023-01-12T22:01:25.607Z,6.38
2023-01-12T22:06:27.383Z,6.37
2023-01-12T22:11:29.049Z,6.30
2023-01-12T22:16:31.897Z,6.23
2023-01-12T22:21:33.637Z,6.20
2023-01-12T22:26:35.629Z,6.24
2023-01-12T22:31:37.754Z,6.23
2023-01-12T22:36:43.338Z,6.26
2023-01-12T22:41:44.999Z,6.32
2023-01-12T22:46:46.609Z,6.32
2023-01-12T22:51:48.216Z,6.30
2023-01-12T22:56:49.993Z,6.26
2023-01-12T23:01:51.660Z,6.23
2023-01-12T23:06:53.533Z,6.24
2023-01-12T23:11:55.235Z,6.22
2023-01-12T23:16:56.871Z,6.20
2023-01-12T23:22:01.014Z,6.19
2023-01-12T23:27:02.619Z,6.21
2023-01-12T23:32:04.415Z,6.20
2023-01-12T23:37:06.084Z,6.21
2023-01-12T23:42:07.675Z,6.20
2023-01-12T23:47:09.361Z,6.20
2023-01-12T23:52:11.037Z,6.23
2023-01-12T23:57:12.689Z,6.23
